Warrington, Indiana
Current Conditions -  °F | °C
As of 3:54 AM on Wednesday 22 Oct 2014 (Local Time) from KMQJ Reporting Station
Clear Clear  
Wind Chill: 33°   Ceiling: Unl
Heat Index: 37°   Visibility: 10mi
Dew Point: 34°   Wind: 6mph
Humidity: 87%   Direction: 360°N
Pressure: 30.24"   Gusts: NA
Location:  39.9098°N, 85.6325°W
Report Text: KMQJ 220754Z AUTO 36005KT 10SM CLR 03/01 A3024 RMK AO1
Loading
Personal Weather Stations






























Interactive Weather Map New forecast layout! Learn more

10-Day Weather Forecast

Advertisements
Track Severe Weather on mobile